METAR Data
IDs: Format: Raw Decoded Include TAF

Data at: 1248 UTC 24 Jan 2021

METAR for:KNDZ (Milton/Whiting-S(NAS, FL, US)
Text:KNDZ 240956Z AUTO 09006KT 10SM OVC024 13/07 A3012 RMK AO2 SLP186 T01330067 $
Temperature: 13.3°C ( 56°F)
Dewpoint: 6.7°C ( 44°F) [RH = 64%]
Pressure (altimeter):30.12 inches Hg (1020.1 mb) [Sea level pressure: 1018.6 mb]
Winds:from the E (90 degrees) at 7 MPH (6 knots; 3.1 m/s)
Visibility:10 or more sm (16+ km)
Ceiling:2400 feet AGL
Clouds: overcast cloud deck at 2400 feet AGL
QC Flag:automated observation with no human augmentation; SOME DATA ABOVE MAY BE INACCURATE!!!"$" is an indication the sensor requires maintenance.

TAF for:KNDZ (Milton/Whiting-S(NAS, FL, US)
Text:No data found